| Date | Time | Temp. (oF) | Dew Point (oF) | Rel. Hum. (%) | Press. (in.) | Wind Dir. | Wind Speed (mph) | Hourly Rainfall (in.) |
|
|---|---|---|---|---|---|---|---|---|---|
| 1 | 09/21 | 00:00 | 67 | 62 | 87 | 30.21 | SE | 5 | 0.00 |
| 2 | 09/20 | 23:00 | 67 | 62 | 85 | 30.20 | SSE | 4 | 0.00 |
| 3 | 09/20 | 22:00 | 68 | 63 | 85 | 30.20 | SSE | 4 | 0.00 |
| 4 | 09/20 | 21:00 | 69 | 64 | 86 | 30.19 | ESE | 3 | 0.00 |
| 5 | 09/20 | 20:00 | 71 | 65 | 82 | 30.17 | S | 3 | 0.00 |
| 6 | 09/20 | 19:00 | 72 | 65 | 80 | 30.17 | E | 5 | 0.00 |
| 7 | 09/20 | 18:00 | 75 | 67 | 77 | 30.15 | ESE | 4 | 0.00 |
| 8 | 09/20 | 17:00 | 76 | 66 | 73 | 30.14 | E | 4 | 0.00 |
| 9 | 09/20 | 16:00 | 78 | 67 | 71 | 30.13 | SSE | 4 | 0.00 |
| 10 | 09/20 | 15:00 | 78 | 66 | 68 | 30.14 | ESE | 3 | 0.00 |
| 11 | 09/20 | 14:00 | 78 | 66 | 69 | 30.16 | S | 3 | 0.00 |
| 12 | 09/20 | 13:00 | 78 | 67 | 70 | 30.17 | S | 5 | 0.00 |
| 13 | 09/20 | 12:00 | 75 | 67 | 78 | 30.18 | E | 3 | 0.00 |
| 14 | 09/20 | 11:00 | 72 | 67 | 85 | 30.19 | S | 4 | 0.00 |
| 15 | 09/20 | 10:00 | 70 | 66 | 88 | 30.18 | SSE | 2 | 0.00 |
| 16 | 09/20 | 09:00 | 67 | 65 | 94 | 30.16 | NE | 3 | 0.00 |
| 17 | 09/20 | 08:00 | 64 | 63 | 98 | 30.15 | WSW | 0 | 0.00 |
| 18 | 09/20 | 07:00 | 62 | 61 | 98 | 30.13 | S | 1 | 0.00 |
| 19 | 09/20 | 06:00 | 61 | 60 | 97 | 30.10 | S | 1 | 0.00 |
| 20 | 09/20 | 05:00 | 61 | 60 | 97 | 30.08 | S | 2 | 0.00 |
| 21 | 09/20 | 04:00 | 62 | 60 | 96 | 30.06 | S | 0 | 0.00 |
| 22 | 09/20 | 03:00 | 62 | 60 | 95 | 30.06 | S | 1 | 0.00 |
| 23 | 09/20 | 02:00 | 63 | 61 | 94 | 30.06 | S | 0 | 0.00 |
| 24 | 09/20 | 01:00 | 64 | 61 | 91 | 30.05 | S | 1 | 0.00 |